createdAt,value
2023-03-02T00:02:17.411Z,32.62
2023-03-02T00:04:55.408Z,33.23
2023-03-02T00:07:23.553Z,33.04
2023-03-02T00:09:51.024Z,32.91
2023-03-02T00:12:18.196Z,32.46
2023-03-02T00:14:45.374Z,32.36
2023-03-02T00:17:12.789Z,32.30
2023-03-02T00:19:40.053Z,31.97
2023-03-02T00:22:08.210Z,32.15
2023-03-02T00:24:36.494Z,31.84
2023-03-02T00:27:03.632Z,31.77
2023-03-02T00:29:30.769Z,31.68
2023-03-02T00:31:58.316Z,31.84
2023-03-02T00:34:25.477Z,32.10
2023-03-02T00:36:52.799Z,31.91
2023-03-02T00:39:20.437Z,31.90
2023-03-02T00:41:48.337Z,31.79
2023-03-02T00:44:17.511Z,31.82
2023-03-02T00:46:45.321Z,31.60
2023-03-02T00:49:12.871Z,31.52
2023-03-02T00:51:39.998Z,31.50
2023-03-02T00:54:07.461Z,31.44
2023-03-02T00:56:35.192Z,31.59
2023-03-02T00:59:08.115Z,31.67
2023-03-02T01:01:35.900Z,31.79
2023-03-02T01:04:03.263Z,31.67
2023-03-02T01:06:30.775Z,31.67
2023-03-02T01:08:58.458Z,31.85
2023-03-02T01:11:25.714Z,32.41
2023-03-02T01:13:52.872Z,32.36
2023-03-02T01:16:20.426Z,32.60
2023-03-02T01:18:47.637Z,32.22
2023-03-02T01:21:16.070Z,32.63
2023-03-02T01:23:43.663Z,33.01
2023-03-02T01:26:10.874Z,32.58
2023-03-02T01:28:38.021Z,32.45
2023-03-02T01:31:05.597Z,33.08
2023-03-02T01:33:32.964Z,33.03
2023-03-02T01:36:00.314Z,33.01
2023-03-02T01:38:28.123Z,32.74
2023-03-02T01:40:55.347Z,32.81
2023-03-02T01:43:22.599Z,33.03
2023-03-02T01:45:51.932Z,32.50
2023-03-02T01:48:21.695Z,32.53
2023-03-02T01:50:49.028Z,33.10
2023-03-02T01:53:16.603Z,32.71
2023-03-02T01:55:44.219Z,33.26
2023-03-02T01:58:12.591Z,33.42
2023-03-02T02:00:40.356Z,33.23
2023-03-02T02:03:11.996Z,32.90
2023-03-02T02:05:40.313Z,32.43
2023-03-02T02:08:08.444Z,32.38
2023-03-02T02:10:35.838Z,32.69
2023-03-02T02:13:03.035Z,32.18
2023-03-02T02:15:30.483Z,32.26
2023-03-02T02:17:57.854Z,32.41
2023-03-02T02:20:25.046Z,32.41
2023-03-02T02:22:52.394Z,32.76
2023-03-02T02:25:42.860Z,32.45
2023-03-02T02:28:11.645Z,32.71
2023-03-02T02:30:38.837Z,32.70
2023-03-02T02:33:06.258Z,32.46
2023-03-02T02:35:38.563Z,32.34
2023-03-02T02:38:06.504Z,32.44
2023-03-02T02:40:37.024Z,32.53
2023-03-02T02:43:04.856Z,32.32
2023-03-02T02:45:32.039Z,32.33
2023-03-02T02:47:59.478Z,32.17
2023-03-02T02:50:33.506Z,32.05
2023-03-02T02:53:03.017Z,32.12
2023-03-02T02:55:30.363Z,32.41
2023-03-02T02:57:57.832Z,32.91
2023-03-02T03:00:25.322Z,32.48
2023-03-02T03:02:58.908Z,32.79
2023-03-02T03:05:26.342Z,32.66
2023-03-02T03:07:53.559Z,32.75
2023-03-02T03:10:20.656Z,33.00
2023-03-02T03:12:48.318Z,32.81
2023-03-02T03:15:15.581Z,33.08
2023-03-02T03:17:47.254Z,33.92
2023-03-02T03:20:16.301Z,33.72
2023-03-02T03:22:43.873Z,33.53
2023-03-02T03:25:15.306Z,33.37
2023-03-02T03:27:43.049Z,33.07
2023-03-02T03:30:12.023Z,33.26
2023-03-02T03:32:40.035Z,33.17
2023-03-02T03:35:11.679Z,33.82
2023-03-02T03:37:40.345Z,34.23
2023-03-02T03:40:09.842Z,34.30
2023-03-02T03:42:38.278Z,34.19
2023-03-02T03:45:06.348Z,34.32
2023-03-02T03:47:34.259Z,33.84
2023-03-02T03:50:01.652Z,34.11
2023-03-02T03:52:32.413Z,33.96
2023-03-02T03:55:01.870Z,33.79
2023-03-02T03:57:29.500Z,33.68
2023-03-02T03:59:56.645Z,33.68
2023-03-02T04:02:24.282Z,33.56
2023-03-02T04:04:51.974Z,33.36
2023-03-02T04:07:19.430Z,33.22
2023-03-02T04:09:46.843Z,32.98
2023-03-02T04:12:14.490Z,32.85
2023-03-02T04:14:42.209Z,32.66
2023-03-02T04:17:09.504Z,32.63
2023-03-02T04:19:37.600Z,32.59
2023-03-02T04:22:05.180Z,32.36
2023-03-02T04:24:33.054Z,32.71
2023-03-02T04:27:01.290Z,32.54
2023-03-02T04:29:28.817Z,32.46
2023-03-02T04:31:56.095Z,32.44
2023-03-02T04:34:27.379Z,32.68
2023-03-02T04:36:55.065Z,32.61
2023-03-02T04:39:22.444Z,32.67
2023-03-02T04:41:50.046Z,32.72
2023-03-02T04:44:17.290Z,32.90
2023-03-02T04:46:45.140Z,32.97
2023-03-02T04:49:13.153Z,32.88
2023-03-02T04:51:42.087Z,32.72
2023-03-02T04:54:20.203Z,32.49
2023-03-02T04:56:49.200Z,32.50
2023-03-02T04:59:16.758Z,32.65
2023-03-02T05:01:44.562Z,32.96
2023-03-02T05:04:12.354Z,32.76
2023-03-02T05:06:39.710Z,32.52
2023-03-02T05:09:06.853Z,32.82
2023-03-02T05:11:34.285Z,33.08
2023-03-02T05:14:02.666Z,32.91
2023-03-02T05:16:31.948Z,32.84
2023-03-02T05:19:00.100Z,33.12
2023-03-02T05:21:27.518Z,32.92
2023-03-02T05:23:54.847Z,33.29
2023-03-02T05:26:22.367Z,33.60
2023-03-02T05:28:50.094Z,33.80
2023-03-02T05:31:18.714Z,34.02
2023-03-02T05:33:46.320Z,33.80
2023-03-02T05:36:13.480Z,33.99
2023-03-02T05:38:40.768Z,33.35
2023-03-02T05:41:08.215Z,33.85
2023-03-02T05:43:36.050Z,34.00
2023-03-02T05:46:03.307Z,33.87
2023-03-02T05:48:30.983Z,33.62
2023-03-02T05:50:58.114Z,33.85
2023-03-02T05:53:25.281Z,33.72
2023-03-02T05:55:53.350Z,33.41
2023-03-02T05:58:20.551Z,33.14
2023-03-02T06:00:48.112Z,32.85
2023-03-02T06:03:15.926Z,32.47
2023-03-02T06:05:44.080Z,32.40
2023-03-02T06:08:11.209Z,32.56
2023-03-02T06:10:38.784Z,32.26
2023-03-02T06:13:05.960Z,31.61
2023-03-02T06:15:33.117Z,32.12
2023-03-02T06:18:00.562Z,31.40
2023-03-02T06:20:27.754Z,31.36
2023-03-02T06:22:55.081Z,31.06
2023-03-02T06:25:23.546Z,30.33
2023-03-02T06:27:54.366Z,29.74
2023-03-02T06:30:22.945Z,29.46
2023-03-02T06:32:50.537Z,28.46
2023-03-02T06:35:18.075Z,28.69
2023-03-02T06:37:45.282Z,28.49
2023-03-02T06:40:13.887Z,26.59
2023-03-02T06:42:41.862Z,27.18
2023-03-02T06:45:09.541Z,26.92
2023-03-02T06:47:37.000Z,27.07
2023-03-02T06:50:04.653Z,27.79
2023-03-02T06:52:31.872Z,26.61
2023-03-02T06:54:59.289Z,26.42
2023-03-02T06:57:33.610Z,26.08
2023-03-02T07:00:04.317Z,26.03
2023-03-02T07:02:31.478Z,26.53
2023-03-02T07:04:58.627Z,26.18
2023-03-02T07:07:26.045Z,27.44
2023-03-02T07:09:53.204Z,27.90
2023-03-02T07:12:20.339Z,26.98
2023-03-02T07:14:47.824Z,27.15
2023-03-02T07:17:14.979Z,26.56
2023-03-02T07:19:42.131Z,26.79
2023-03-02T07:22:09.554Z,27.31
2023-03-02T07:24:36.712Z,27.17
2023-03-02T07:27:04.448Z,28.71
2023-03-02T07:29:31.893Z,28.03
2023-03-02T07:32:01.845Z,27.75
2023-03-02T07:34:29.095Z,26.32
2023-03-02T07:36:56.646Z,26.57
2023-03-02T07:39:23.832Z,26.93
2023-03-02T07:41:51.050Z,27.28
2023-03-02T07:44:20.624Z,27.39
2023-03-02T07:46:47.754Z,27.26
2023-03-02T07:49:14.923Z,26.90
2023-03-02T07:51:42.372Z,27.53
2023-03-02T07:54:09.517Z,27.68
2023-03-02T07:56:36.654Z,28.47
2023-03-02T07:59:05.124Z,27.95
2023-03-02T08:01:32.589Z,27.54
2023-03-02T08:04:00.171Z,27.20
2023-03-02T08:06:27.405Z,27.84
2023-03-02T08:08:54.561Z,27.62
2023-03-02T08:11:22.008Z,28.76
2023-03-02T08:13:49.173Z,28.82
2023-03-02T08:16:16.575Z,27.99
2023-03-02T08:18:44.258Z,28.19
2023-03-02T08:21:12.247Z,29.05
2023-03-02T08:23:39.426Z,29.78
2023-03-02T08:26:06.907Z,28.40
2023-03-02T08:28:34.330Z,28.08
2023-03-02T08:31:02.142Z,28.79
2023-03-02T08:33:30.729Z,29.78
2023-03-02T08:36:02.148Z,29.38
2023-03-02T08:38:30.088Z,28.17
2023-03-02T08:40:57.223Z,27.06
2023-03-02T08:43:24.825Z,28.42
2023-03-02T08:45:52.835Z,26.85
2023-03-02T08:48:20.781Z,26.85
2023-03-02T08:50:54.319Z,26.33
2023-03-02T08:53:21.770Z,26.26
2023-03-02T08:55:48.953Z,26.74
2023-03-02T08:58:16.204Z,27.08
2023-03-02T09:00:43.907Z,27.13
2023-03-02T09:03:11.349Z,26.09
2023-03-02T09:05:38.547Z,28.18
2023-03-02T09:08:06.264Z,27.32
2023-03-02T09:10:33.460Z,27.61
2023-03-02T09:13:00.896Z,27.87
2023-03-02T09:15:28.311Z,28.39
2023-03-02T09:17:55.451Z,28.26
2023-03-02T09:20:22.615Z,28.38
2023-03-02T09:22:50.957Z,28.77
2023-03-02T09:25:18.790Z,28.20
2023-03-02T09:27:46.578Z,26.97
2023-03-02T09:30:14.456Z,25.90
2023-03-02T09:32:42.004Z,26.65
2023-03-02T09:35:09.403Z,26.65
2023-03-02T09:37:38.827Z,27.83
2023-03-02T09:40:12.013Z,28.46
2023-03-02T09:42:44.394Z,28.67
2023-03-02T09:45:18.781Z,27.68
2023-03-02T09:47:51.834Z,27.72
2023-03-02T09:50:19.023Z,26.94
2023-03-02T09:52:52.459Z,27.21
2023-03-02T09:55:20.765Z,27.41
2023-03-02T09:57:48.606Z,26.90
2023-03-02T10:00:19.901Z,26.78
2023-03-02T10:02:51.534Z,27.37
2023-03-02T10:05:20.637Z,27.30
2023-03-02T10:07:48.620Z,27.20
2023-03-02T10:10:21.972Z,27.91
2023-03-02T10:13:00.031Z,28.92
2023-03-02T10:15:31.335Z,27.55
2023-03-02T10:18:18.550Z,27.19
2023-03-02T10:20:56.550Z,26.72
2023-03-02T10:23:38.165Z,26.39
2023-03-02T10:26:05.518Z,27.40
2023-03-02T10:28:34.494Z,25.71
2023-03-02T10:31:14.873Z,26.18
2023-03-02T10:33:42.528Z,26.01
2023-03-02T10:36:22.861Z,26.12
2023-03-02T10:38:50.584Z,25.99
2023-03-02T10:41:20.749Z,26.67
2023-03-02T10:43:49.210Z,27.60
2023-03-02T10:46:16.671Z,26.42
2023-03-02T10:48:50.868Z,26.12
2023-03-02T10:51:26.199Z,25.41
2023-03-02T10:54:03.415Z,25.70
2023-03-02T10:56:31.716Z,26.34
2023-03-02T10:59:03.374Z,24.27
2023-03-02T11:01:31.400Z,26.12
2023-03-02T11:03:59.801Z,26.42
2023-03-02T11:06:27.331Z,25.12
2023-03-02T11:09:00.308Z,25.76
2023-03-02T11:11:27.713Z,24.73
2023-03-02T11:13:56.887Z,25.59
2023-03-02T11:16:25.801Z,26.14
2023-03-02T11:18:54.943Z,25.69
2023-03-02T11:21:25.493Z,26.30
2023-03-02T11:24:14.005Z,27.31
2023-03-02T11:26:44.582Z,26.58
2023-03-02T11:29:15.179Z,25.91
2023-03-02T11:31:50.070Z,25.54
2023-03-02T11:34:44.503Z,26.75
2023-03-02T11:37:11.997Z,27.47
2023-03-02T11:39:54.968Z,27.93
2023-03-02T11:42:27.442Z,27.85
2023-03-02T11:44:54.934Z,29.08
2023-03-02T11:47:22.624Z,28.39
2023-03-02T11:49:53.181Z,27.80
2023-03-02T11:52:21.810Z,27.50
2023-03-02T11:55:07.812Z,28.78
2023-03-02T11:57:37.099Z,29.09
2023-03-02T12:00:05.967Z,27.80
2023-03-02T12:02:39.460Z,27.77
2023-03-02T12:05:08.625Z,28.77
2023-03-02T12:07:36.253Z,29.67
2023-03-02T12:10:07.614Z,30.41
2023-03-02T12:12:36.774Z,30.32
2023-03-02T12:15:04.211Z,29.67
2023-03-02T12:17:32.890Z,29.03
2023-03-02T12:20:18.547Z,29.09
2023-03-02T12:22:45.720Z,29.81
2023-03-02T12:25:19.135Z,29.32
2023-03-02T12:27:50.460Z,29.67
2023-03-02T12:30:26.537Z,28.23
2023-03-02T12:33:05.514Z,28.31
2023-03-02T12:35:33.651Z,27.81
2023-03-02T12:38:01.856Z,28.43
2023-03-02T12:40:35.193Z,28.47
2023-03-02T12:43:11.689Z,28.17
2023-03-02T12:45:42.704Z,30.26
2023-03-02T12:48:24.287Z,28.99
2023-03-02T12:50:51.516Z,27.82
2023-03-02T12:53:19.655Z,29.55
2023-03-02T12:55:46.852Z,28.59
2023-03-02T12:58:21.107Z,28.63
2023-03-02T13:00:52.886Z,28.31
2023-03-02T13:03:20.270Z,28.40
2023-03-02T13:05:47.598Z,28.43
2023-03-02T13:08:15.151Z,27.94
2023-03-02T13:10:42.361Z,29.51
2023-03-02T13:13:17.010Z,30.26
2023-03-02T13:15:51.690Z,29.26
2023-03-02T13:18:19.110Z,29.85
2023-03-02T13:20:46.609Z,30.32
2023-03-02T13:23:14.119Z,30.21
2023-03-02T13:25:48.781Z,30.78
2023-03-02T13:28:34.520Z,31.15
2023-03-02T13:31:03.538Z,29.94
2023-03-02T13:33:32.711Z,29.47
2023-03-02T13:35:59.901Z,30.21
2023-03-02T13:38:29.042Z,29.86
2023-03-02T13:40:56.553Z,28.90
2023-03-02T13:43:23.709Z,29.77
2023-03-02T13:45:51.962Z,30.31
2023-03-02T13:48:19.442Z,29.43
2023-03-02T13:50:55.560Z,29.74
2023-03-02T13:53:24.345Z,28.93
2023-03-02T13:55:52.705Z,29.90
2023-03-02T13:58:19.857Z,29.49
2023-03-02T14:00:47.310Z,28.84
2023-03-02T14:03:28.268Z,28.90
2023-03-02T14:05:55.679Z,30.02
2023-03-02T14:08:23.391Z,30.10
2023-03-02T14:10:51.974Z,30.17
2023-03-02T14:13:21.363Z,29.28
2023-03-02T14:15:50.325Z,30.35
2023-03-02T14:18:29.931Z,30.45
2023-03-02T14:20:57.818Z,29.09
2023-03-02T14:23:25.604Z,28.33
2023-03-02T14:25:53.045Z,29.26
2023-03-02T14:28:25.120Z,31.02
2023-03-02T14:30:53.067Z,31.67
2023-03-02T14:33:20.792Z,30.79
2023-03-02T14:35:48.594Z,30.30
2023-03-02T14:38:15.784Z,30.14
2023-03-02T14:40:43.259Z,29.34
2023-03-02T14:43:10.513Z,29.21
2023-03-02T14:45:37.677Z,30.05
2023-03-02T14:48:05.318Z,30.01
2023-03-02T14:50:33.885Z,29.12
2023-03-02T14:53:01.054Z,29.03
2023-03-02T14:55:29.384Z,28.97
2023-03-02T14:58:26.177Z,29.39
2023-03-02T15:00:53.877Z,29.54
2023-03-02T15:03:25.488Z,29.74
2023-03-02T15:06:00.917Z,31.11
2023-03-02T15:08:29.153Z,31.14
2023-03-02T15:10:57.421Z,31.68
2023-03-02T15:13:24.568Z,31.11
2023-03-02T15:15:53.539Z,29.83
2023-03-02T15:18:20.728Z,29.86
2023-03-02T15:20:48.060Z,29.28
2023-03-02T15:23:15.510Z,29.08
2023-03-02T15:25:43.054Z,29.91
2023-03-02T15:28:10.265Z,30.41
2023-03-02T15:30:37.833Z,30.06
2023-03-02T15:33:05.001Z,31.15
2023-03-02T15:35:32.319Z,30.20
2023-03-02T15:38:02.602Z,30.38
2023-03-02T15:40:29.816Z,30.12
2023-03-02T15:42:57.216Z,30.26
2023-03-02T15:45:24.699Z,30.19
2023-03-02T15:47:51.863Z,29.95
2023-03-02T15:50:19.021Z,30.08
2023-03-02T15:52:46.513Z,30.59
2023-03-02T15:55:16.679Z,30.56
2023-03-02T15:57:43.880Z,29.91
2023-03-02T16:00:13.510Z,30.72
2023-03-02T16:02:41.130Z,30.48
2023-03-02T16:05:08.849Z,30.07
2023-03-02T16:07:37.309Z,30.24
2023-03-02T16:10:05.150Z,30.62
2023-03-02T16:12:32.316Z,31.20
2023-03-02T16:14:59.600Z,31.20
2023-03-02T16:17:27.447Z,31.26
2023-03-02T16:19:54.815Z,31.00
2023-03-02T16:22:22.112Z,31.22
2023-03-02T16:24:49.630Z,30.57
2023-03-02T16:27:16.998Z,30.41
2023-03-02T16:29:44.481Z,30.58
2023-03-02T16:32:12.106Z,30.76
2023-03-02T16:34:39.402Z,30.86
2023-03-02T16:37:06.587Z,30.81
2023-03-02T16:39:34.202Z,31.01
2023-03-02T16:42:01.409Z,30.96
2023-03-02T16:44:28.696Z,31.65
2023-03-02T16:46:57.438Z,31.65
2023-03-02T16:49:24.933Z,31.58
2023-03-02T16:51:55.728Z,31.38
2023-03-02T16:54:23.453Z,31.29
2023-03-02T16:56:50.747Z,31.76
2023-03-02T16:59:18.067Z,31.68
2023-03-02T17:01:45.900Z,31.65
2023-03-02T17:04:13.598Z,31.56
2023-03-02T17:06:59.518Z,32.09
2023-03-02T17:09:28.660Z,32.35
2023-03-02T17:11:56.073Z,33.15
2023-03-02T17:14:24.352Z,32.91
2023-03-02T17:16:52.617Z,32.81
2023-03-02T17:19:20.376Z,32.26
2023-03-02T17:21:48.109Z,32.30
2023-03-02T17:24:17.612Z,32.21
2023-03-02T17:26:47.581Z,32.52
2023-03-02T17:29:15.295Z,32.22
2023-03-02T17:31:43.236Z,32.28
2023-03-02T17:34:10.823Z,32.11
2023-03-02T17:36:38.627Z,32.05
2023-03-02T17:39:06.352Z,32.26
2023-03-02T17:41:35.037Z,32.66
2023-03-02T17:44:03.402Z,32.61
2023-03-02T17:46:32.648Z,32.99
2023-03-02T17:49:01.587Z,32.71
2023-03-02T17:51:29.280Z,32.87
2023-03-02T17:53:58.269Z,33.52
2023-03-02T17:56:28.030Z,33.47
2023-03-02T17:58:58.658Z,33.27
2023-03-02T18:01:28.897Z,33.61
2023-03-02T18:03:57.185Z,33.92
2023-03-02T18:06:25.750Z,34.58
2023-03-02T18:08:53.520Z,34.80
2023-03-02T18:11:23.292Z,34.59
2023-03-02T18:13:51.292Z,34.42
2023-03-02T18:16:18.943Z,34.96
2023-03-02T18:19:04.160Z,34.97
2023-03-02T18:21:34.949Z,35.33
2023-03-02T18:24:03.578Z,34.74
2023-03-02T18:26:32.322Z,34.60
2023-03-02T18:29:03.413Z,34.65
2023-03-02T18:31:37.253Z,34.67
2023-03-02T18:34:10.607Z,35.05
2023-03-02T18:36:39.242Z,34.85
2023-03-02T18:39:08.282Z,35.09
2023-03-02T18:41:37.986Z,35.20
2023-03-02T18:44:06.684Z,35.33
2023-03-02T18:46:34.905Z,35.34
2023-03-02T18:49:04.738Z,35.37
2023-03-02T18:51:33.211Z,35.50
2023-03-02T18:54:04.149Z,35.38
2023-03-02T18:56:39.199Z,35.50
2023-03-02T18:59:09.157Z,36.34
2023-03-02T19:01:37.113Z,35.60
2023-03-02T19:04:09.247Z,35.50
2023-03-02T19:06:37.907Z,35.33
2023-03-02T19:09:05.876Z,35.29
2023-03-02T19:11:34.889Z,35.36
2023-03-02T19:14:03.785Z,35.44
2023-03-02T19:16:33.220Z,35.52
2023-03-02T19:19:02.285Z,35.40
2023-03-02T19:21:30.871Z,35.48
2023-03-02T19:23:59.631Z,35.25
2023-03-02T19:26:28.012Z,35.37
2023-03-02T19:28:55.657Z,35.35
2023-03-02T19:31:24.685Z,35.55
2023-03-02T19:33:52.760Z,35.92
2023-03-02T19:36:22.489Z,35.87
2023-03-02T19:38:51.561Z,36.17
2023-03-02T19:41:20.906Z,36.13
2023-03-02T19:43:49.307Z,36.16
2023-03-02T19:46:20.371Z,36.48
2023-03-02T19:48:48.368Z,36.70
2023-03-02T19:51:17.725Z,36.42
2023-03-02T19:53:47.226Z,36.32
2023-03-02T19:56:15.740Z,36.24
2023-03-02T19:58:49.230Z,36.30
2023-03-02T20:01:22.120Z,36.44
2023-03-02T20:03:55.264Z,36.90
2023-03-02T20:06:25.538Z,36.97
2023-03-02T20:08:55.418Z,36.57
2023-03-02T20:11:29.389Z,36.71
2023-03-02T20:14:02.086Z,36.50
2023-03-02T20:16:31.120Z,36.42
2023-03-02T20:19:09.648Z,36.38
2023-03-02T20:21:39.005Z,36.78
2023-03-02T20:24:09.280Z,37.15
2023-03-02T20:26:39.965Z,36.97
2023-03-02T20:29:12.009Z,37.42
2023-03-02T20:31:40.101Z,37.11
2023-03-02T20:34:11.225Z,37.27
2023-03-02T20:36:39.643Z,37.11
2023-03-02T20:39:23.803Z,37.44
2023-03-02T20:41:53.265Z,37.47
2023-03-02T20:44:21.840Z,37.62
2023-03-02T20:46:55.202Z,37.67
2023-03-02T20:49:24.543Z,37.88
2023-03-02T20:51:57.753Z,37.84
2023-03-02T20:54:31.822Z,37.83
2023-03-02T20:56:59.828Z,37.86
2023-03-02T20:59:28.455Z,37.70
2023-03-02T21:02:01.608Z,37.37
2023-03-02T21:04:48.964Z,37.10
2023-03-02T21:07:18.582Z,37.20
2023-03-02T21:09:46.939Z,37.36
2023-03-02T21:12:15.255Z,36.96
2023-03-02T21:14:43.505Z,37.22
2023-03-02T21:17:11.169Z,37.23
2023-03-02T21:19:39.090Z,37.11
2023-03-02T21:22:07.351Z,37.39
2023-03-02T21:24:34.796Z,37.59
2023-03-02T21:27:02.623Z,37.39
2023-03-02T21:29:30.442Z,37.54
2023-03-02T21:31:58.454Z,37.65
2023-03-02T21:34:26.368Z,37.60
2023-03-02T21:36:56.136Z,37.55
2023-03-02T21:39:26.314Z,37.36
2023-03-02T21:41:54.288Z,37.58
2023-03-02T21:44:21.760Z,37.66
2023-03-02T21:46:49.120Z,37.83
2023-03-02T21:49:17.730Z,37.25
2023-03-02T21:51:45.222Z,37.61
2023-03-02T21:54:12.765Z,37.64
2023-03-02T21:56:40.223Z,37.47
2023-03-02T21:59:07.429Z,37.64
2023-03-02T22:01:34.670Z,37.74
2023-03-02T22:04:02.310Z,37.97
2023-03-02T22:06:31.121Z,37.67
2023-03-02T22:08:58.704Z,37.68
2023-03-02T22:11:27.510Z,38.37
2023-03-02T22:13:55.709Z,38.36
2023-03-02T22:16:23.869Z,38.28
2023-03-02T22:18:55.153Z,38.31
2023-03-02T22:21:30.723Z,38.44
2023-03-02T22:24:11.088Z,39.01
2023-03-02T22:26:39.619Z,38.64
2023-03-02T22:29:36.470Z,38.71
2023-03-02T22:32:27.198Z,38.73
2023-03-02T22:34:58.739Z,38.77
2023-03-02T22:37:27.044Z,38.54
2023-03-02T22:39:55.150Z,39.11
2023-03-02T22:42:23.191Z,39.43
2023-03-02T22:45:02.069Z,39.07
2023-03-02T22:47:30.317Z,38.52
2023-03-02T22:50:39.287Z,38.68
2023-03-02T22:53:13.590Z,38.50
2023-03-02T22:55:42.286Z,39.16
2023-03-02T22:58:21.742Z,38.98
2023-03-02T23:00:49.101Z,40.02
2023-03-02T23:03:20.314Z,39.20
2023-03-02T23:05:51.052Z,39.27
2023-03-02T23:08:18.565Z,39.52
2023-03-02T23:10:46.666Z,40.06
2023-03-02T23:13:14.774Z,40.93
2023-03-02T23:15:42.503Z,40.86
2023-03-02T23:18:13.013Z,40.16
2023-03-02T23:20:40.177Z,40.26
2023-03-02T23:23:07.624Z,40.01
2023-03-02T23:25:34.765Z,40.22
2023-03-02T23:28:16.145Z,40.37
2023-03-02T23:30:43.868Z,40.11
2023-03-02T23:33:11.134Z,40.60
2023-03-02T23:35:38.351Z,40.58
2023-03-02T23:38:05.814Z,40.20
2023-03-02T23:40:32.984Z,40.12
2023-03-02T23:43:00.154Z,39.85
2023-03-02T23:45:27.615Z,39.96
2023-03-02T23:47:55.273Z,39.81
2023-03-02T23:50:22.575Z,39.99
2023-03-02T23:52:50.020Z,40.24
2023-03-02T23:55:17.886Z,40.16
2023-03-02T23:57:45.323Z,40.48
